Latest Weather Observations for Low Head

IDT60801

Issued at 8:02 am EST Sunday 5 July 2015 (issued every 30 minutes, with the page automatically refreshed every 10 minutes)

About weather observations | Map of weather stations | Latest weather observations for TAS | Other Formats
Station Details ID: 091293 Name: LOW HEAD Lat: -41.05 Lon: 146.79 Height: 3.0 m
Data from the previous 72 hours. | See also: Recent months at Low Head
Date/Time
EST
Temp
°C
App
Temp
°C
Dew
Point
Rel
Hum
%
Delta-T
°C
Wind Press
QNH
hPa
Press
MSL
hPa
Rain
since 9 am
mm
Dir
 
Spd
km/h
Gust
km/h
Spd
kts
Gust
kts
05/08:00am 10.0 8.4 8.9 93 0.5 E 7 11 4 6 1014.4 1014.4 1.8
05/07:30am 9.9 8.5 8.8 93 0.5 E 6 7 3 4 1014.3 1014.3 1.8
05/07:00am 9.7 8.0 8.5 92 0.6 SSE 7 9 4 5 1014.2 1014.2 1.6
05/06:30am 10.1 8.5 8.7 91 0.7 SSW 7 7 4 4 1014.2 1014.2 1.2
05/06:00am 10.3 8.9 8.9 91 0.7 WSW 6 9 3 5 1014.3 1014.3 1.2
05/05:30am 10.2 8.2 8.6 90 0.8 WSW 9 11 5 6 1014.5 1014.5 1.0
05/05:00am 10.3 7.5 8.4 88 0.9 W 13 17 7 9 1014.4 1014.4 0.8
05/04:30am 10.7 6.7 8.3 85 1.2 WNW 19 20 10 11 1014.7 1014.7 0.0
05/04:00am 11.1 7.1 8.3 83 1.4 W 19 22 10 12 1014.7 1014.7 0.0
05/03:30am 11.1 6.9 8.1 82 1.5 WNW 20 24 11 13 1014.8 1014.8 0.0
05/03:00am 11.1 6.9 8.1 82 1.5 W 20 24 11 13 1014.9 1014.9 0.0
05/02:30am 11.1 6.1 8.0 81 1.5 W 24 28 13 15 1015.3 1015.3 0.0
05/02:00am 11.0 5.5 7.7 80 1.6 W 26 30 14 16 1015.2 1015.2 0.0
05/01:30am 11.2 5.0 7.7 79 1.7 W 30 35 16 19 1015.1 1015.1 0.0
05/01:00am 11.3 4.1 7.8 79 1.7 W 35 41 19 22 1015.2 1015.2 0.0
05/12:30am 11.1 3.8 7.4 78 1.8 WNW 35 41 19 22 1015.4 1015.4 0.0
05/12:00am 11.3 3.7 7.4 77 1.9 WNW 37 41 20 22 1015.3 1015.3 0.0
 
Date/Time
EST
Temp
°C
App
Temp
°C
Dew
Point
Rel
Hum
%
Delta-T
°C
Wind Press
QNH
hPa
Press
MSL
hPa
Rain
since 9 am
mm
Dir
 
Spd
km/h
Gust
km/h
Spd
kts
Gust
kts
04/11:30pm 11.2 3.5 7.1 76 2.0 WNW 37 43 20 23 1015.4 1015.4 0.0
04/11:00pm 11.0 4.0 6.7 75 2.0 W 33 39 18 21 1015.5 1015.5 0.0
04/10:30pm 11.3 4.0 7.0 75 2.0 W 35 41 19 22 1015.3 1015.3 0.0
04/10:00pm 11.4 4.4 6.9 74 2.1 W 33 39 18 21 1015.2 1015.2 0.0
04/09:30pm 11.3 4.3 6.8 74 2.1 W 33 39 18 21 1015.5 1015.5 0.0
04/09:00pm 11.4 4.6 6.7 73 2.2 WNW 32 37 17 20 1015.5 1015.5 0.0
04/08:30pm 11.5 5.4 6.6 72 2.3 W 28 33 15 18 1015.6 1015.6 0.0
04/08:00pm 11.5 5.4 6.6 72 2.3 W 28 32 15 17 1015.5 1015.5 0.0
04/07:30pm 11.4 6.0 6.3 71 2.4 W 24 32 13 17 1015.3 1015.3 0.0
04/07:00pm 11.7 7.1 6.6 71 2.4 WSW 20 24 11 13 1015.3 1015.3 0.0
04/06:30pm 11.9 5.9 7.0 72 2.3 WSW 28 33 15 18 1014.9 1014.9 0.0
04/06:00pm 12.3 5.5 6.8 69 2.6 W 32 37 17 20 1014.5 1014.5 0.0
04/05:30pm 12.3 7.2 7.6 73 2.3 W 24 28 13 15 1014.2 1014.2 0.0
04/05:00pm 12.4 8.5 7.3 71 2.5 WSW 17 24 9 13 1014.1 1014.1 0.0
04/04:30pm 12.8 7.6 7.3 69 2.7 WSW 24 28 13 15 1014.0 1014.0 0.0
04/04:00pm 13.0 6.8 7.9 71 2.5 WSW 30 37 16 20 1013.8 1013.8 0.0
04/03:30pm 12.9 7.6 9.7 81 1.6 W 28 32 15 17 1013.7 1013.7 0.0
04/03:00pm 13.1 7.7 9.5 79 1.8 WNW 28 33 15 18 1013.7 1013.7 0.0
04/02:30pm 13.6 9.1 10.0 79 1.9 WNW 24 28 13 15 1013.4 1013.4 0.0
04/02:00pm 13.4 7.6 9.6 78 1.9 W 30 37 16 20 1013.3 1013.3 0.0
04/01:30pm 13.5 7.6 11.0 85 1.3 WNW 33 39 18 21 1013.4 1013.4 0.0
04/01:00pm 13.3 7.4 11.2 87 1.1 WNW 33 39 18 21 1013.5 1013.5 0.0
04/12:30pm 13.2 5.8 11.3 88 1.0 WNW 41 48 22 26 1013.3 1013.3 0.0
04/12:00pm 13.2 5.8 11.3 88 1.0 WNW 41 48 22 26 1013.5 1013.5 0.0
04/11:30am 12.9 5.1 11.1 89 0.9 WNW 43 50 23 27 1013.8 1013.8 0.0
04/11:00am 12.7 5.6 10.8 88 1.0 WNW 39 50 21 27 1014.0 1014.0 0.0
04/10:30am 12.7 5.6 10.8 88 1.0 WNW 39 48 21 26 1014.2 1014.2 0.0
04/10:00am 12.7 5.9 10.6 87 1.1 WNW 37 44 20 24 1014.1 1014.1 0.0
04/09:30am 12.4 5.9 10.3 87 1.1 W 35 46 19 25 1013.9 1013.9 0.0
04/09:00am 12.4 5.6 10.5 88 1.0 WNW 37 43 20 23 1014.0 1014.0 0.6
04/08:30am 12.2 6.1 10.4 89 0.9 WNW 33 41 18 22 1013.9 1013.9 0.6
04/08:00am 12.2 6.3 10.6 90 0.8 WNW 32 39 17 21 1013.9 1013.9 0.6
04/07:30am 12.2 6.2 10.9 92 0.7 WNW 33 43 18 23 1014.0 1014.0 0.6
04/07:00am 12.2 6.2 10.9 92 0.7 WNW 33 44 18 24 1014.0 1014.0 0.6
04/06:30am 12.2 5.1 10.9 92 0.7 WNW 39 48 21 26 1014.1 1014.1 0.6
04/06:00am 12.0 5.2 10.7 92 0.7 NW 37 48 20 26 1014.0 1014.0 0.4
04/05:30am 12.2 4.6 10.6 90 0.8 NW 41 50 22 27 1014.0 1014.0 0.4
04/05:00am 12.1 4.5 10.5 90 0.8 NW 41 50 22 27 1014.2 1014.2 0.4
04/04:30am 11.8 5.2 10.0 89 0.9 WNW 35 43 19 23 1014.4 1014.4 0.4
04/04:00am 11.8 3.7 10.2 90 0.8 WNW 43 50 23 27 1014.7 1014.7 0.4
04/03:30am 11.7 3.5 9.8 88 1.0 WNW 43 52 23 28 1014.7 1014.7 0.2
04/03:00am 12.1 4.2 9.5 84 1.3 WNW 41 46 22 25 1015.2 1015.2 0.0
04/02:30am 11.8 4.6 9.2 84 1.3 WNW 37 43 20 23 1015.6 1015.6 0.0
04/02:00am 11.7 4.4 8.9 83 1.4 WNW 37 46 20 25 1015.9 1015.9 0.0
04/01:30am 11.4 4.4 8.4 82 1.5 WNW 35 43 19 23 1016.3 1016.3 0.0
04/01:00am 10.9 4.4 8.0 82 1.4 WNW 32 39 17 21 1016.4 1016.4 0.0
04/12:30am 10.7 3.1 7.6 81 1.5 WNW 37 43 20 23 1017.1 1017.1 0.0
04/12:00am 10.6 2.7 7.7 82 1.4 WNW 39 50 21 27 1017.6 1017.6 0.0
 
Date/Time
EST
Temp
°C
App
Temp
°C
Dew
Point
Rel
Hum
%
Delta-T
°C
Wind Press
QNH
hPa
Press
MSL
hPa
Rain
since 9 am
mm
Dir
 
Spd
km/h
Gust
km/h
Spd
kts
Gust
kts
03/11:30pm 10.5 1.6 7.6 82 1.4 W 44 56 24 30 1018.1 1018.1 0.0
03/11:00pm 10.5 2.2 7.6 82 1.4 W 41 52 22 28 1018.3 1018.3 0.0
03/10:30pm 10.3 2.7 7.4 82 1.4 WNW 37 44 20 24 1018.6 1018.6 0.0
03/10:00pm 10.1 2.0 7.2 82 1.4 W 39 48 21 26 1019.1 1019.1 0.0
03/09:30pm 9.8 1.2 6.7 81 1.4 WNW 41 48 22 26 1019.0 1019.0 0.0
03/09:00pm 10.0 0.9 6.9 81 1.5 W 44 50 24 27 1019.2 1019.2 0.0
03/08:30pm 9.9 0.0 6.8 81 1.5 W 48 57 26 31 1019.2 1019.2 0.0
03/08:00pm 9.6 0.4 6.3 80 1.5 WNW 44 52 24 28 1019.3 1019.3 0.0
03/07:30pm 9.8 0.2 6.3 79 1.6 W 46 54 25 29 1019.6 1019.6 0.0
03/07:00pm 9.8 -0.6 6.2 78 1.7 W 50 59 27 32 1019.8 1019.8 0.0
03/06:30pm 10.1 0.6 6.6 79 1.6 W 46 56 25 30 1019.8 1019.8 0.0
03/06:00pm 10.1 1.1 6.6 79 1.6 WNW 43 52 23 28 1019.7 1019.7 0.0
03/05:30pm 10.2 1.0 6.4 77 1.8 WNW 44 54 24 29 1019.7 1019.7 0.0
03/05:00pm 10.3 0.4 6.5 77 1.8 WNW 48 56 26 30 1019.8 1019.8 0.0
03/04:30pm 10.4 1.4 6.5 77 1.8 WNW 43 50 23 27 1020.0 1020.0 0.0
03/04:00pm 11.1 3.0 7.2 77 1.9 WNW 39 46 21 25 1020.1 1020.1 0.0
03/03:30pm 10.9 1.9 6.5 74 2.1 WNW 43 50 23 27 1020.3 1020.3 0.0
03/03:00pm 11.1 2.1 6.6 74 2.1 WNW 43 50 23 27 1020.4 1020.4 0.0
03/02:30pm 10.9 2.2 5.9 71 2.3 W 41 46 22 25 1020.4 1020.4 0.0
03/02:00pm 10.8 2.5 6.0 72 2.2 W 39 48 21 26 1020.8 1020.8 0.0
03/01:30pm 10.8 3.3 6.4 74 2.1 W 35 43 19 23 1021.2 1021.2 0.0
03/01:00pm 9.4 3.8 5.2 75 1.9 WSW 24 33 13 18 1021.7 1021.7 0.0
03/12:30pm 9.0 2.9 4.8 75 1.9 W 26 32 14 17 1022.3 1022.3 0.0
03/12:00pm 8.7 3.3 4.7 76 1.8 W 22 32 12 17 1022.8 1022.8 0.0
03/11:30am 8.1 4.9 5.2 82 1.3 W 11 15 6 8 1023.2 1023.2 0.0
03/11:00am 6.6 4.0 4.4 86 0.9 W 7 9 4 5 1024.0 1024.0 0.0
03/10:30am 5.6 2.9 3.9 89 0.7 SSE 7 9 4 5 1024.0 1024.0 0.0
03/10:00am 4.6 1.1 3.3 91 0.5 SSE 11 13 6 7 1024.2 1024.2 0.0
03/09:30am 3.6 -0.9 2.4 92 0.5 SSE 15 17 8 9 1024.0 1024.0 0.0
03/09:00am 2.6 -2.4 1.6 93 0.4 SSE 17 19 9 10 1024.3 1024.3 0.0
03/08:30am 2.3 -2.7 1.3 93 0.4 SSE 17 20 9 11 1024.1 1024.1 0.0
03/08:00am 2.6 -2.4 1.6 93 0.4 S 17 22 9 12 1023.9 1023.9 0.0
03/07:30am 2.3 -3.1 1.3 93 0.4 SSE 19 22 10 12 1023.8 1023.8 0.0
03/07:00am 2.8 -1.8 1.8 93 0.4 S 15 20 8 11 1023.8 1023.8 0.0
03/06:30am 2.8 -2.2 1.6 92 0.5 SSE 17 20 9 11 1023.7 1023.7 0.0
03/06:00am 3.3 -1.3 1.8 90 0.6 S 15 20 8 11 1023.4 1023.4 0.0
03/05:30am 3.4 -1.2 1.4 87 0.8 S 15 20 8 11 1023.1 1023.1 0.0
03/05:00am 2.9 -1.5 0.5 84 0.9 SSE 13 17 7 9 1023.0 1023.0 0.0
03/04:30am 4.4 0.1 1.3 80 1.2 SSE 13 19 7 10 1023.0 1023.0 0.0
03/04:00am 5.3 1.4 1.4 76 1.5 SSE 11 15 6 8 1023.2 1023.2 0.0
03/03:30am 7.0 1.2 2.5 73 1.9 WSW 22 26 12 14 1023.1 1023.1 0.0
03/03:00am 6.9 2.9 2.8 75 1.7 SSW 13 19 7 10 1023.5 1023.5 0.0
03/02:30am 7.9 2.4 3.9 76 1.7 WSW 22 26 12 14 1023.6 1023.6 0.0
03/02:00am 8.1 3.5 3.9 75 1.8 WSW 17 20 9 11 1023.6 1023.6 0.0
03/01:30am 8.0 2.8 3.8 75 1.8 WSW 20 24 11 13 1023.7 1023.7 0.0
03/01:00am 8.0 2.8 3.8 75 1.8 WSW 20 24 11 13 1023.6 1023.6 0.0
03/12:30am 8.1 2.2 3.9 75 1.8 WSW 24 28 13 15 1023.8 1023.8 0.0
03/12:00am 7.8 1.8 3.5 74 1.8 WSW 24 28 13 15 1023.8 1023.8 0.0
 
Date/Time
EST
Temp
°C
App
Temp
°C
Dew
Point
Rel
Hum
%
Delta-T
°C
Wind Press
QNH
hPa
Press
MSL
hPa
Rain
since 9 am
mm
Dir
 
Spd
km/h
Gust
km/h
Spd
kts
Gust
kts
02/11:30pm 7.8 1.5 3.7 75 1.8 WSW 26 28 14 15 1023.7 1023.7 0.0
02/11:00pm 7.7 1.4 3.7 76 1.7 WSW 26 30 14 16 1023.4 1023.4 0.0
02/10:30pm 7.8 1.9 3.8 76 1.7 WSW 24 26 13 14 1023.3 1023.3 0.0
02/10:00pm 7.7 1.0 3.6 75 1.7 WSW 28 33 15 18 1023.5 1023.5 0.0
02/09:30pm 7.8 0.3 3.7 75 1.8 WSW 32 39 17 21 1023.4 1023.4 0.0
02/09:00pm 7.9 -0.2 3.4 73 1.9 WSW 35 41 19 22 1022.9 1022.9 0.0
02/08:30pm 7.8 0.7 3.5 74 1.8 WSW 30 33 16 18 1022.9 1022.9 0.0
02/08:00pm 8.0 0.9 3.7 74 1.8 WSW 30 35 16 19 1022.5 1022.5 0.0
02/07:30pm 8.0 0.3 3.5 73 1.9 WSW 33 39 18 21 1022.1 1022.1 0.0
02/07:00pm 8.0 0.8 2.9 70 2.1 SW 30 35 16 19 1021.8 1021.8 0.0
02/06:30pm 8.1 0.9 2.8 69 2.2 SW 30 39 16 21 1021.2 1021.2 0.0
02/06:00pm 8.7 1.5 2.9 67 2.5 WSW 30 39 16 21 1020.7 1020.7 0.0
02/05:30pm 9.3 0.4 3.1 65 2.7 WSW 39 46 21 25 1020.0 1020.0 0.0
02/05:00pm 9.7 2.1 3.0 63 2.9 WSW 32 39 17 21 1019.3 1019.3 0.0
02/04:30pm 10.1 2.2 2.2 58 3.3 WSW 33 41 18 22 1018.7 1018.7 0.0
02/04:00pm 10.4 2.2 2.5 58 3.4 WSW 35 43 19 23 1018.6 1018.6 0.0
02/03:30pm 11.0 4.3 3.5 60 3.3 W 28 33 15 18 1018.2 1018.2 0.0
02/03:00pm 10.9 3.6 2.5 56 3.6 WSW 30 41 16 22 1017.2 1017.2 0.0
02/02:30pm 10.8 2.7 3.4 60 3.2 WSW 35 44 19 24 1016.8 1016.8 0.0
02/02:00pm 10.7 2.3 3.5 61 3.2 W 37 44 20 24 1016.5 1016.5 0.0
02/01:30pm 10.5 1.6 3.3 61 3.1 WSW 39 48 21 26 1016.1 1016.1 0.0
02/01:00pm 10.4 2.2 2.7 59 3.3 WSW 35 44 19 24 1016.0 1016.0 0.0
02/12:30pm 10.2 2.7 3.5 63 2.9 WSW 32 35 17 19 1015.8 1015.8 0.0
02/12:00pm 9.3 1.7 3.9 69 2.4 W 33 43 18 23 1015.5 1015.5 0.0
02/11:30am 9.1 1.2 4.3 72 2.1 WSW 35 39 19 21 1015.5 1015.5 0.0
02/11:00am 8.8 0.9 4.2 73 2.0 WSW 35 41 19 22 1015.6 1015.6 0.0
02/10:30am 8.4 -0.7 3.8 73 2.0 WSW 41 46 22 25 1015.3 1015.3 0.0
02/10:00am 8.3 1.2 3.6 72 2.0 SW 30 39 16 21 1014.7 1014.7 0.0
02/09:30am 7.8 1.5 3.5 74 1.8 WSW 26 33 14 18 1013.9 1013.9 0.0
02/09:00am 8.4 0.1 4.2 75 1.8 WSW 37 43 20 23 1013.4 1013.4 1.2
02/08:30am 8.4 -0.7 4.2 75 1.8 W 41 48 22 26 1013.0 1013.0 1.2

Other Formats:

Comma delimited format used in spreadsheet applications
http://www.bom.gov.au/fwo/IDT60801/IDT60801.95964.axf

JavaScript Object Notation format (JSON) in row-major order
http://www.bom.gov.au/fwo/IDT60801/IDT60801.95964.json